Time;durP1;ratioP1;P1;durP2;ratioP2;P2;SDS_P1;SDS_P2;PMS_P1;PMS_P2;Temp;Humidity;BMP_temperature;BMP_pressure;BME280_temperature;BME280_humidity;BME280_pressure;Samples;Min_cycle;Max_cycle;Signal;HPM_P1;HPM_P2
2024/02/09 00:00:30;;;;;;;15.27;5.97;;;;;;;7.13;nan;94070.25;2058343;28;20045;-56
2024/02/09 00:01:37;;;;;;;14.95;6.28;;;;;;;7.14;nan;94065.94;2058811;28;20057;-57
2024/02/09 00:02:41;;;;;;;15.70;5.40;;;;;;;7.15;nan;94060.66;2058112;28;20061;-56
2024/02/09 00:03:43;;;;;;;19.33;5.68;;;;;;;7.14;nan;94053.03;2057530;28;20046;-57
2024/02/09 00:04:47;;;;;;;11.68;4.93;;;;;;;7.16;nan;94051.97;2057394;28;20054;-56
2024/02/09 00:05:50;;;;;;;18.60;4.88;;;;;;;7.19;nan;94050.97;2058348;28;20058;-56
2024/02/09 00:06:51;;;;;;;14.75;4.82;;;;;;;7.19;nan;94046.66;2057880;28;20054;-56
2024/02/09 00:07:52;;;;;;;12.60;4.53;;;;;;;7.20;nan;94043.13;2058237;28;20735;-57
2024/02/09 00:08:53;;;;;;;15.40;5.50;;;;;;;7.23;nan;94042.94;2057950;28;20051;-56
2024/02/09 00:09:55;;;;;;;13.50;4.65;;;;;;;7.25;nan;94042.84;2058420;28;20043;-56
2024/02/09 00:10:56;;;;;;;12.77;4.75;;;;;;;7.23;nan;94037.75;2057595;28;20043;-56
2024/02/09 00:11:57;;;;;;;10.45;4.60;;;;;;;7.24;nan;94034.28;2057588;28;20038;-56
2024/02/09 00:12:58;;;;;;;15.68;4.57;;;;;;;7.28;nan;94034.88;2058655;28;20041;-56
2024/02/09 00:14:01;;;;;;;17.42;5.22;;;;;;;7.28;nan;94035.72;2065607;28;20050;-57
2024/02/09 00:15:04;;;;;;;15.90;4.65;;;;;;;7.28;nan;94025.38;2066233;28;20478;-56
2024/02/09 00:16:05;;;;;;;11.68;4.47;;;;;;;7.29;nan;94023.63;2057606;28;20046;-56
2024/02/09 00:17:06;;;;;;;19.27;5.13;;;;;;;7.31;nan;94018.38;2057458;28;20518;-56
2024/02/09 00:18:07;;;;;;;9.68;4.07;;;;;;;7.32;nan;94030.34;2066208;28;20049;-56
2024/02/09 00:19:12;;;;;;;10.65;3.70;;;;;;;7.31;nan;94024.34;2066320;28;20042;-56
2024/02/09 00:20:13;;;;;;;13.23;4.32;;;;;;;7.33;nan;94021.69;2066166;28;20423;-56
2024/02/09 00:21:14;;;;;;;10.27;3.60;;;;;;;7.28;nan;94019.41;2066200;28;20042;-56
2024/02/09 00:22:15;;;;;;;13.63;4.22;;;;;;;7.32;nan;94020.00;2065090;28;20034;-56
2024/02/09 00:23:19;;;;;;;12.20;4.22;;;;;;;7.34;nan;94023.31;2066294;28;20046;-56
2024/02/09 00:24:20;;;;;;;13.50;4.15;;;;;;;7.31;nan;94018.38;2065678;28;20054;-56
2024/02/09 00:25:21;;;;;;;9.45;4.25;;;;;;;7.29;nan;94015.88;2066342;28;20474;-56
2024/02/09 00:26:23;;;;;;;11.95;4.25;;;;;;;7.33;nan;94009.59;2066391;28;20026;-56
2024/02/09 00:27:24;;;;;;;10.98;3.97;;;;;;;7.29;nan;94010.72;2065522;28;20083;-56
2024/02/09 00:28:25;;;;;;;10.80;4.22;;;;;;;7.32;nan;94004.53;2066007;28;20442;-57
2024/02/09 00:29:26;;;;;;;16.33;4.18;;;;;;;7.33;nan;94003.59;2065516;28;20049;-56
2024/02/09 00:30:28;;;;;;;14.02;4.20;;;;;;;7.34;nan;93990.59;2065999;28;20500;-56
2024/02/09 00:31:29;;;;;;;17.65;4.47;;;;;;;7.34;nan;93995.75;2066138;28;20514;-56
2024/02/09 00:32:30;;;;;;;10.60;3.60;;;;;;;7.36;nan;93996.47;2066141;28;20041;-56
2024/02/09 00:33:31;;;;;;;12.65;4.10;;;;;;;7.36;nan;93993.06;2066185;28;20379;-55
2024/02/09 00:34:33;;;;;;;14.77;4.80;;;;;;;7.38;nan;93989.47;2065879;28;20042;-56
2024/02/09 00:35:35;;;;;;;13.93;4.07;;;;;;;7.37;nan;93992.13;2065436;28;20046;-56
2024/02/09 00:36:36;;;;;;;22.05;4.28;;;;;;;7.40;nan;93994.50;2065189;28;20050;-56
2024/02/09 00:37:40;;;;;;;10.98;3.60;;;;;;;7.41;nan;93989.25;2066065;28;20034;-56
2024/02/09 00:38:41;;;;;;;10.68;4.30;;;;;;;7.45;nan;93984.69;2065449;28;20509;-56
2024/02/09 00:39:42;;;;;;;11.82;3.97;;;;;;;7.47;nan;93982.84;2065736;28;20053;-56
2024/02/09 00:40:43;;;;;;;15.98;4.25;;;;;;;7.48;nan;93980.19;2066033;28;20038;-56
2024/02/09 00:41:46;;;;;;;13.20;3.35;;;;;;;7.46;nan;93976.84;2066058;28;20042;-56
2024/02/09 00:42:48;;;;;;;12.43;3.75;;;;;;;7.46;nan;93978.63;2065459;28;20054;-56
2024/02/09 00:43:49;;;;;;;11.60;4.10;;;;;;;7.47;nan;93982.84;2065843;28;20054;-56
2024/02/09 00:44:51;;;;;;;9.45;3.88;;;;;;;7.45;nan;93979.53;2065337;28;20054;-56
2024/02/09 00:45:52;;;;;;;12.43;3.88;;;;;;;7.45;nan;93984.69;2065499;28;20046;-56
2024/02/09 00:46:53;;;;;;;13.13;3.65;;;;;;;7.47;nan;93977.69;2065161;28;20042;-56
2024/02/09 00:47:55;;;;;;;8.32;3.30;;;;;;;7.47;nan;93980.25;2065857;28;20098;-56
2024/02/09 00:49:02;;;;;;;11.98;3.88;;;;;;;7.45;nan;93989.88;2065440;28;20050;-56
2024/02/09 00:50:03;;;;;;;9.30;3.35;;;;;;;7.43;nan;93983.97;2065495;28;20046;-56
2024/02/09 00:51:06;;;;;;;9.18;3.67;;;;;;;7.42;nan;93992.66;2066045;28;20406;-56
2024/02/09 00:52:08;;;;;;;13.75;3.08;;;;;;;7.42;nan;93990.06;2065320;28;20372;-56
2024/02/09 00:53:10;;;;;;;10.05;3.63;;;;;;;7.44;nan;93989.03;2065980;28;20435;-56
2024/02/09 00:54:14;;;;;;;10.02;3.22;;;;;;;7.47;nan;93995.75;2065905;28;20046;-55
2024/02/09 00:55:16;;;;;;;7.13;3.67;;;;;;;7.47;nan;93988.00;2056953;28;20051;-56
2024/02/09 00:56:17;;;;;;;11.00;3.50;;;;;;;7.48;nan;93994.81;2057347;28;20487;-56
2024/02/09 00:57:19;;;;;;;9.77;3.50;;;;;;;7.46;nan;93992.34;2065596;28;20047;-56
2024/02/09 00:58:20;;;;;;;10.60;3.47;;;;;;;7.47;nan;93993.19;2065787;28;20046;-55
2024/02/09 00:59:23;;;;;;;13.20;3.50;;;;;;;7.45;nan;93997.63;2065659;28;20050;-56
2024/02/09 01:00:24;;;;;;;12.05;3.47;;;;;;;7.44;nan;93990.81;2065902;28;20035;-56
2024/02/09 01:01:25;;;;;;;8.13;2.80;;;;;;;7.44;nan;93996.78;2065403;28;20076;-56
2024/02/09 01:02:29;;;;;;;9.75;3.17;;;;;;;7.42;nan;93995.25;2065918;28;20034;-56
2024/02/09 01:03:30;;;;;;;8.27;3.40;;;;;;;7.40;nan;93989.34;2065710;28;20034;-56
2024/02/09 01:04:35;;;;;;;9.25;2.97;;;;;;;7.37;nan;93995.53;2065878;28;20053;-56
2024/02/09 01:05:36;;;;;;;9.45;3.05;;;;;;;7.37;nan;93992.13;2065785;28;20065;-56
2024/02/09 01:06:39;;;;;;;11.68;3.25;;;;;;;7.38;nan;93988.63;2064999;28;20057;-56
2024/02/09 01:07:41;;;;;;;8.98;3.13;;;;;;;7.36;nan;93983.56;2066042;28;20050;-55
2024/02/09 01:08:42;;;;;;;13.52;3.33;;;;;;;7.33;nan;93981.19;2065190;28;20050;-55
2024/02/09 01:09:43;;;;;;;9.75;3.03;;;;;;;7.34;nan;93987.19;2065905;28;20045;-56
2024/02/09 01:10:46;;;;;;;9.65;3.45;;;;;;;7.36;nan;93982.75;2065476;28;20418;-56
2024/02/09 01:11:48;;;;;;;8.95;3.45;;;;;;;7.35;nan;93978.50;2065795;28;20069;-56
2024/02/09 02:45:20;;;;;;;7.95;3.42;;;;;;;7.00;nan;93893.91;2065122;28;20050;-65
2024/02/09 02:46:21;;;;;;;9.80;3.55;;;;;;;7.04;nan;93892.78;2066814;28;20371;-66
2024/02/09 02:47:22;;;;;;;7.13;3.13;;;;;;;7.03;nan;93885.94;2066948;28;20034;-66
2024/02/09 03:04:38;;;;;;;7.60;3.38;;;;;;;6.99;nan;93867.28;2041808;29;20136;-65
2024/02/09 03:05:40;;;;;;;10.93;3.55;;;;;;;6.98;nan;93863.06;2046839;29;20050;-64
2024/02/09 03:06:41;;;;;;;7.25;2.88;;;;;;;6.97;nan;93863.13;2049697;29;20407;-64
2024/02/09 03:07:42;;;;;;;9.20;3.30;;;;;;;6.99;nan;93867.28;2049820;28;20043;-64
2024/02/09 03:08:43;;;;;;;11.52;3.05;;;;;;;7.01;nan;93874.94;2049675;29;20051;-64
2024/02/09 03:09:44;;;;;;;10.65;3.58;;;;;;;7.04;nan;93877.28;2049620;29;20051;-64
2024/02/09 03:10:45;;;;;;;8.85;3.35;;;;;;;7.03;nan;93875.63;2065090;28;20061;-64
2024/02/09 03:11:46;;;;;;;11.48;3.53;;;;;;;7.04;nan;93878.13;2066128;28;20512;-64
2024/02/09 03:12:47;;;;;;;12.55;4.20;;;;;;;7.00;nan;93868.94;2058044;28;20042;-65
2024/02/09 03:13:49;;;;;;;8.05;3.50;;;;;;;7.00;nan;93875.84;2057226;28;20050;-66
2024/02/09 03:14:52;;;;;;;8.95;3.28;;;;;;;7.01;nan;93873.16;2066181;28;20386;-64
2024/02/09 03:15:53;;;;;;;9.95;3.67;;;;;;;7.00;nan;93878.41;2066663;28;20053;-65
2024/02/09 03:16:57;;;;;;;9.00;3.28;;;;;;;7.00;nan;93881.84;2066099;28;20398;-65
2024/02/09 03:17:58;;;;;;;9.70;3.75;;;;;;;7.00;nan;93871.53;2066595;28;20410;-64
2024/02/09 03:19:00;;;;;;;12.55;3.72;;;;;;;6.98;nan;93873.38;2050205;28;20050;-64
2024/02/09 03:20:03;;;;;;;10.68;3.55;;;;;;;6.96;nan;93870.06;2050179;28;20046;-64
2024/02/09 03:21:05;;;;;;;9.85;4.28;;;;;;;6.93;nan;93859.94;2066539;28;20483;-64
2024/02/09 03:22:06;;;;;;;12.32;3.70;;;;;;;6.87;nan;93859.50;2066563;28;20487;-64
2024/02/09 03:23:07;;;;;;;9.82;3.50;;;;;;;6.91;nan;93860.97;2066690;28;20033;-64
2024/02/09 03:24:09;;;;;;;12.63;3.40;;;;;;;6.94;nan;93861.59;2066599;28;20046;-64
2024/02/09 03:25:10;;;;;;;12.15;3.92;;;;;;;6.96;nan;93859.75;2066533;28;20046;-64
2024/02/09 03:26:11;;;;;;;7.95;3.53;;;;;;;6.98;nan;93862.22;2066577;28;20053;-64
2024/02/09 03:27:12;;;;;;;9.50;3.40;;;;;;;6.99;nan;93861.28;2066700;28;20045;-64
2024/02/09 03:28:14;;;;;;;10.32;3.90;;;;;;;7.02;nan;93853.34;2066468;28;20053;-64
2024/02/09 03:29:15;;;;;;;9.43;3.88;;;;;;;7.03;nan;93855.81;2057377;28;20042;-64
2024/02/09 03:30:17;;;;;;;7.13;3.53;;;;;;;7.06;nan;93859.97;2057895;28;20064;-65
2024/02/09 03:31:19;;;;;;;9.60;4.15;;;;;;;7.05;nan;93859.09;2066443;28;20038;-64
2024/02/09 03:32:20;;;;;;;9.40;3.17;;;;;;;7.03;nan;93849.81;2065590;28;20042;-65
2024/02/09 03:33:21;;;;;;;11.05;3.85;;;;;;;7.05;nan;93860.88;2066121;28;20046;-65
2024/02/09 03:34:22;;;;;;;7.60;3.55;;;;;;;6.98;nan;93850.16;2065959;28;20458;-65
2024/02/09 03:35:25;;;;;;;13.30;3.88;;;;;;;6.97;nan;93848.47;2066516;28;20049;-65
2024/02/09 03:36:26;;;;;;;6.78;3.15;;;;;;;6.99;nan;93846.63;2065471;28;20053;-65
2024/02/09 03:37:27;;;;;;;9.35;3.28;;;;;;;7.03;nan;93855.81;2066583;28;20034;-65
2024/02/09 03:38:28;;;;;;;12.60;3.60;;;;;;;7.01;nan;93849.13;2056986;28;20054;-64
2024/02/09 03:39:29;;;;;;;11.68;3.90;;;;;;;7.04;nan;93859.22;2049293;29;20480;-65
2024/02/09 03:40:32;;;;;;;9.65;3.80;;;;;;;7.04;nan;93846.31;2057888;28;20047;-65
2024/02/09 03:41:33;;;;;;;13.27;3.80;;;;;;;7.04;nan;93854.06;2065521;28;20474;-65
2024/02/09 03:42:34;;;;;;;13.73;3.45;;;;;;;7.07;nan;93848.69;2066382;28;20037;-64
2024/02/09 03:43:35;;;;;;;10.07;4.20;;;;;;;7.06;nan;93849.63;2066566;28;20395;-65
2024/02/09 03:44:37;;;;;;;11.82;3.65;;;;;;;7.07;nan;93856.44;2066566;28;20034;-65
2024/02/09 03:45:41;;;;;;;9.35;4.25;;;;;;;7.06;nan;93854.81;2065735;28;20050;-65
2024/02/09 03:46:42;;;;;;;8.57;3.92;;;;;;;7.00;nan;93855.19;2065839;28;20747;-65
2024/02/09 03:47:43;;;;;;;8.35;4.10;;;;;;;6.99;nan;93853.56;2066129;28;20050;-64
2024/02/09 03:48:45;;;;;;;9.38;3.72;;;;;;;6.94;nan;93850.44;2066666;28;20406;-65
2024/02/09 03:49:49;;;;;;;8.27;4.10;;;;;;;6.94;nan;93848.69;2066495;28;20053;-65
2024/02/09 03:50:50;;;;;;;8.60;4.05;;;;;;;6.96;nan;93853.75;2066307;28;20046;-64
2024/02/09 03:51:51;;;;;;;10.13;4.63;;;;;;;6.92;nan;93857.47;2065663;28;20053;-65
2024/02/09 03:52:52;;;;;;;11.30;4.05;;;;;;;6.96;nan;93848.59;2065947;28;20479;-65
2024/02/09 03:53:53;;;;;;;10.55;4.07;;;;;;;6.95;nan;93854.66;2066309;28;20050;-65
2024/02/09 03:54:55;;;;;;;10.07;4.50;;;;;;;6.92;nan;93847.97;2066305;28;20416;-66
2024/02/09 03:55:56;;;;;;;10.40;3.85;;;;;;;6.90;nan;93859.34;2065420;28;20050;-67
2024/02/09 03:56:57;;;;;;;11.25;4.28;;;;;;;6.95;nan;93862.41;2065488;28;20057;-66
2024/02/09 03:57:58;;;;;;;12.90;4.90;;;;;;;6.96;nan;93864.91;2065886;28;20414;-67
2024/02/09 03:58:59;;;;;;;14.00;4.38;;;;;;;6.91;nan;93856.63;2066282;28;20039;-67
2024/02/09 04:00:00;;;;;;;11.02;4.05;;;;;;;6.98;nan;93865.63;2066361;28;20057;-68
2024/02/09 04:01:07;;;;;;;8.35;4.20;;;;;;;7.01;nan;93865.41;2065989;28;20050;-70
2024/02/09 04:02:09;;;;;;;11.88;4.00;;;;;;;7.00;nan;93860.34;2057337;28;20423;-69
2024/02/09 04:03:10;;;;;;;12.68;4.03;;;;;;;6.96;nan;93864.09;2058583;28;20042;-69
2024/02/09 04:04:11;;;;;;;10.27;4.63;;;;;;;6.95;nan;93871.00;2066321;28;20041;-71
2024/02/09 04:05:12;;;;;;;9.95;4.57;;;;;;;6.94;nan;93869.34;2066407;28;20057;-70
2024/02/09 04:06:13;;;;;;;12.20;4.53;;;;;;;6.89;nan;93866.22;2066304;28;20490;-70
2024/02/09 04:07:21;;;;;;;8.77;3.95;;;;;;;6.87;nan;93872.41;2065338;28;20042;-69
2024/02/09 04:08:22;;;;;;;9.98;4.00;;;;;;;6.91;nan;93866.97;2066002;28;20106;-70
2024/02/09 04:09:24;;;;;;;8.50;3.50;;;;;;;6.89;nan;93868.00;2065693;28;20050;-69
2024/02/09 04:10:25;;;;;;;9.40;4.25;;;;;;;6.92;nan;93875.53;2066148;28;20041;-70
2024/02/09 04:11:28;;;;;;;8.32;3.58;;;;;;;6.90;nan;93873.06;2065900;28;20478;-71
2024/02/09 04:12:32;;;;;;;12.90;4.22;;;;;;;6.88;nan;93877.50;2065896;28;20406;-71
2024/02/09 04:13:33;;;;;;;8.45;3.70;;;;;;;6.89;nan;93873.16;2066002;28;20073;-70
2024/02/09 04:14:34;;;;;;;8.70;3.58;;;;;;;6.89;nan;93868.81;2066166;28;20042;-70
2024/02/09 04:15:35;;;;;;;11.23;3.90;;;;;;;6.92;nan;93872.94;2066455;28;20042;-71
2024/02/09 04:16:38;;;;;;;8.50;3.80;;;;;;;6.94;nan;93865.94;2057539;28;20046;-72
2024/02/09 04:17:39;;;;;;;10.13;3.75;;;;;;;6.97;nan;93868.31;2057712;28;20058;-72
2024/02/09 04:18:40;;;;;;;8.88;3.58;;;;;;;6.96;nan;93864.09;2066378;28;20471;-72
2024/02/09 04:19:41;;;;;;;10.38;4.00;;;;;;;7.00;nan;93862.94;2057020;28;20046;-71
2024/02/09 04:20:42;;;;;;;8.55;3.65;;;;;;;7.01;nan;93862.84;2057368;28;20062;-69
2024/02/09 04:21:47;;;;;;;12.32;3.92;;;;;;;7.04;nan;93864.38;2066254;28;20405;-71
2024/02/09 04:22:50;;;;;;;9.98;3.80;;;;;;;7.04;nan;93862.63;2066037;28;20118;-71
2024/02/09 04:23:52;;;;;;;10.15;4.10;;;;;;;7.05;nan;93868.63;2066100;28;20030;-71
2024/02/09 04:24:54;;;;;;;9.38;3.97;;;;;;;7.04;nan;93861.81;2066037;28;20046;-71
2024/02/09 04:25:57;;;;;;;10.82;3.88;;;;;;;7.06;nan;93862.53;2065983;28;20398;-71
2024/02/09 04:26:58;;;;;;;10.57;4.32;;;;;;;7.06;nan;93854.81;2066003;28;20510;-71
2024/02/09 04:28:03;;;;;;;8.45;3.97;;;;;;;7.06;nan;93863.34;2065559;28;20049;-70
2024/02/09 04:29:05;;;;;;;9.52;4.95;;;;;;;7.03;nan;93863.56;2066140;28;20043;-70
2024/02/09 04:30:06;;;;;;;15.40;4.88;;;;;;;7.00;nan;93861.19;2065836;28;20046;-70
2024/02/09 04:31:07;;;;;;;13.20;5.10;;;;;;;6.98;nan;93859.66;2066060;28;20395;-70
2024/02/09 04:32:08;;;;;;;10.75;5.05;;;;;;;6.98;nan;93859.66;2066024;28;20031;-71
2024/02/09 04:33:10;;;;;;;12.95;4.70;;;;;;;6.96;nan;93861.50;2066071;28;20049;-70
2024/02/09 04:34:14;;;;;;;10.45;4.78;;;;;;;6.95;nan;93858.09;2065118;28;20057;-70
2024/02/09 04:35:17;;;;;;;10.88;4.47;;;;;;;6.95;nan;93857.25;2066056;28;20050;-70
2024/02/09 04:36:18;;;;;;;12.38;4.75;;;;;;;6.98;nan;93857.06;2065968;28;20395;-70
2024/02/09 04:37:21;;;;;;;9.27;4.40;;;;;;;6.99;nan;93861.28;2066012;28;20030;-70
2024/02/09 04:38:24;;;;;;;9.85;4.95;;;;;;;6.96;nan;93858.91;2065279;28;20517;-70
2024/02/09 04:39:25;;;;;;;6.88;3.55;;;;;;;6.92;nan;93854.88;2065790;28;20053;-69
2024/02/09 04:40:27;;;;;;;10.95;3.40;;;;;;;6.96;nan;93854.59;2065779;28;20041;-69
2024/02/09 04:41:28;;;;;;;13.63;4.60;;;;;;;7.00;nan;93850.03;2065909;28;20038;-68
2024/02/09 04:42:29;;;;;;;8.57;4.07;;;;;;;6.95;nan;93852.94;2065456;28;20038;-69
2024/02/09 04:43:30;;;;;;;10.93;3.70;;;;;;;6.96;nan;93853.75;2065923;28;20394;-70
2024/02/09 04:44:33;;;;;;;10.50;4.07;;;;;;;6.98;nan;93851.91;2066233;28;20038;-69
2024/02/09 04:45:34;;;;;;;8.85;3.65;;;;;;;7.03;nan;93847.22;2065321;28;20065;-70
2024/02/09 04:46:35;;;;;;;12.52;3.63;;;;;;;6.99;nan;93843.22;2065245;28;20050;-70
2024/02/09 04:47:36;;;;;;;8.98;3.17;;;;;;;7.03;nan;93845.50;2065940;28;20042;-70
2024/02/09 04:48:37;;;;;;;5.93;3.17;;;;;;;7.03;nan;93845.50;2066176;28;20038;-70
2024/02/09 04:49:39;;;;;;;8.80;3.78;;;;;;;7.04;nan;93843.75;2065815;28;20049;-70
2024/02/09 04:50:40;;;;;;;9.98;3.90;;;;;;;7.05;nan;93840.22;2065316;28;20046;-71
2024/02/09 04:51:45;;;;;;;9.23;3.35;;;;;;;7.04;nan;93843.75;2065960;28;20068;-71
2024/02/09 04:52:47;;;;;;;6.32;3.20;;;;;;;7.04;nan;93848.91;2065895;28;20042;-71
2024/02/09 04:53:48;;;;;;;6.68;3.10;;;;;;;7.02;nan;93843.84;2065794;28;20484;-71
2024/02/09 04:54:49;;;;;;;8.57;3.05;;;;;;;7.04;nan;93847.16;2065908;28;20037;-70
2024/02/09 04:55:50;;;;;;;9.32;3.60;;;;;;;7.01;nan;93842.19;2065567;28;20098;-71
2024/02/09 04:56:51;;;;;;;9.57;3.55;;;;;;;7.00;nan;93840.56;2065999;28;20045;-71
2024/02/09 04:57:52;;;;;;;11.00;2.88;;;;;;;6.98;nan;93839.81;2065793;28;20483;-72
2024/02/09 04:58:53;;;;;;;9.60;4.20;;;;;;;6.97;nan;93839.91;2065990;28;20046;-70
2024/02/09 04:59:54;;;;;;;6.75;3.17;;;;;;;7.01;nan;93846.53;2065831;28;20406;-71
2024/02/09 05:00:55;;;;;;;6.93;3.05;;;;;;;7.01;nan;93838.78;2065943;28;20045;-70
2024/02/09 05:01:57;;;;;;;7.50;3.20;;;;;;;7.01;nan;93846.53;2065949;28;20037;-70
2024/02/09 05:02:58;;;;;;;7.70;3.25;;;;;;;7.01;nan;93843.97;2065940;28;20402;-70
2024/02/09 05:03:59;;;;;;;7.88;3.20;;;;;;;7.00;nan;93843.13;2065874;28;20066;-70
2024/02/09 05:05:01;;;;;;;10.63;2.95;;;;;;;6.96;nan;93840.84;2065846;28;20053;-71
2024/02/09 05:06:02;;;;;;;12.25;3.50;;;;;;;6.92;nan;93839.41;2065791;28;20049;-69
2024/02/09 05:07:04;;;;;;;5.60;2.67;;;;;;;6.89;nan;93832.69;2065790;28;20050;-69
2024/02/09 05:08:05;;;;;;;12.93;3.92;;;;;;;6.89;nan;93840.44;2064902;28;20042;-62
2024/02/09 05:09:08;;;;;;;8.52;3.40;;;;;;;6.89;nan;93837.03;2056091;28;20076;-62
2024/02/09 05:10:11;;;;;;;11.20;3.10;;;;;;;6.90;nan;93841.28;2057369;28;20065;-62
2024/02/09 05:11:12;;;;;;;9.90;3.67;;;;;;;6.89;nan;93843.00;2065498;28;20046;-62
2024/02/09 05:12:13;;;;;;;8.18;3.15;;;;;;;6.91;nan;93845.50;2065602;28;20049;-62
2024/02/09 05:13:14;;;;;;;11.35;4.18;;;;;;;6.88;nan;93841.38;2065648;28;20050;-62
2024/02/09 05:14:16;;;;;;;18.40;4.45;;;;;;;6.84;nan;93840.75;2065767;28;20050;-61
2024/02/09 05:15:17;;;;;;;14.80;4.95;;;;;;;6.85;nan;93846.75;2065657;28;20501;-62
2024/02/09 05:16:18;;;;;;;22.00;5.50;;;;;;;6.82;nan;93840.03;2065640;28;20038;-61
2024/02/09 05:17:20;;;;;;;15.90;5.15;;;;;;;6.83;nan;93844.25;2065835;28;20038;-62
2024/02/09 05:18:21;;;;;;;15.88;4.50;;;;;;;6.81;nan;93842.69;2057164;28;20049;-61
2024/02/09 05:19:22;;;;;;;15.35;4.25;;;;;;;6.76;nan;93848.19;2057138;28;20144;-62
2024/02/09 05:20:23;;;;;;;16.75;5.15;;;;;;;6.73;nan;93838.03;2065024;28;20073;-62
2024/02/09 05:21:24;;;;;;;19.33;5.53;;;;;;;6.73;nan;93845.78;2065932;28;20041;-62
2024/02/09 05:22:27;;;;;;;17.20;5.28;;;;;;;6.70;nan;93847.75;2065799;28;20038;-62
2024/02/09 05:23:28;;;;;;;12.15;4.50;;;;;;;6.66;nan;93841.97;2065708;28;20119;-62
2024/02/09 05:24:30;;;;;;;11.32;3.97;;;;;;;6.69;nan;93843.53;2065765;28;20030;-62
2024/02/09 05:25:31;;;;;;;12.45;4.80;;;;;;;6.68;nan;93844.44;2065599;28;20042;-62
2024/02/09 05:26:32;;;;;;;13.35;4.25;;;;;;;6.67;nan;93838.47;2065550;28;20034;-62
2024/02/09 05:27:34;;;;;;;11.48;3.78;;;;;;;6.67;nan;93841.03;2065990;28;20038;-62
2024/02/09 05:28:39;;;;;;;9.50;3.75;;;;;;;6.67;nan;93843.63;2065605;28;20390;-62
2024/02/09 05:29:40;;;;;;;13.52;4.72;;;;;;;6.66;nan;93838.56;2066283;28;20050;-65
2024/02/09 05:30:41;;;;;;;7.43;4.35;;;;;;;6.65;nan;93835.16;2066030;28;20046;-63
2024/02/09 05:31:42;;;;;;;11.10;4.93;;;;;;;6.64;nan;93843.81;2057242;28;20050;-63
2024/02/09 05:32:43;;;;;;;11.68;4.30;;;;;;;6.65;nan;93836.91;2040937;29;20047;-63
2024/02/09 05:33:45;;;;;;;12.10;5.00;;;;;;;6.66;nan;93829.09;2048968;28;20415;-63
2024/02/09 05:34:46;;;;;;;9.93;4.72;;;;;;;6.63;nan;93830.09;2065741;28;20042;-62
2024/02/09 05:35:51;;;;;;;11.73;5.00;;;;;;;6.65;nan;93830.00;2065634;28;20042;-62
2024/02/09 05:36:54;;;;;;;11.48;4.15;;;;;;;6.67;nan;93830.72;2065656;28;20049;-62
2024/02/09 05:37:55;;;;;;;11.27;4.22;;;;;;;6.67;nan;93828.13;2065317;28;20518;-62
2024/02/09 05:38:58;;;;;;;10.55;4.28;;;;;;;6.68;nan;93829.78;2065502;28;20041;-62
2024/02/09 05:40:00;;;;;;;9.93;4.78;;;;;;;6.67;nan;93822.97;2065414;28;20481;-62
2024/02/09 05:41:02;;;;;;;11.05;5.05;;;;;;;6.69;nan;93831.44;2057013;28;20039;-62
2024/02/09 05:42:04;;;;;;;13.93;5.20;;;;;;;6.70;nan;93827.94;2056456;28;20396;-62
2024/02/09 05:43:05;;;;;;;11.38;4.60;;;;;;;6.71;nan;93826.19;2064748;28;20049;-62
2024/02/09 05:44:07;;;;;;;11.77;4.72;;;;;;;6.70;nan;93817.63;2065279;28;20046;-62
2024/02/09 05:45:08;;;;;;;13.77;4.78;;;;;;;6.70;nan;93822.78;2065669;28;20049;-62
2024/02/09 05:46:09;;;;;;;11.88;4.20;;;;;;;6.66;nan;93831.66;2065314;28;20050;-62
2024/02/09 05:47:10;;;;;;;12.02;5.07;;;;;;;6.67;nan;93835.88;2065443;28;20487;-62
2024/02/09 05:48:11;;;;;;;9.93;4.35;;;;;;;6.68;nan;93836.69;2065708;28;20050;-62
2024/02/09 05:49:12;;;;;;;10.43;4.78;;;;;;;6.66;nan;93831.66;2065436;28;20380;-62
2024/02/09 05:50:13;;;;;;;11.52;4.70;;;;;;;6.67;nan;93835.88;2065528;28;20038;-62
2024/02/09 05:51:15;;;;;;;11.90;5.10;;;;;;;6.68;nan;93829.78;2065566;28;20038;-62
2024/02/09 05:52:16;;;;;;;10.48;4.78;;;;;;;6.67;nan;93835.88;2065623;28;20034;-62
2024/02/09 05:53:17;;;;;;;10.40;5.28;;;;;;;6.68;nan;93823.81;2064821;28;20069;-62
2024/02/09 05:54:19;;;;;;;12.88;5.07;;;;;;;6.69;nan;93828.06;2065384;28;20050;-62
2024/02/09 05:55:20;;;;;;;9.30;4.20;;;;;;;6.69;nan;93835.78;2065248;28;20042;-62
2024/02/09 05:56:25;;;;;;;9.40;4.38;;;;;;;6.69;nan;93836.63;2065453;28;20049;-62
2024/02/09 05:57:27;;;;;;;12.07;4.35;;;;;;;6.70;nan;93835.66;2065653;28;20049;-62
2024/02/09 05:58:29;;;;;;;12.07;4.80;;;;;;;6.70;nan;93830.50;2065041;28;20150;-62
2024/02/09 05:59:30;;;;;;;9.25;4.93;;;;;;;6.72;nan;93831.25;2065475;28;20042;-62
2024/02/09 06:00:31;;;;;;;12.55;4.25;;;;;;;6.72;nan;93833.81;2065459;28;20042;-62
2024/02/09 06:01:32;;;;;;;11.77;4.18;;;;;;;6.75;nan;93830.22;2064655;28;20453;-62
2024/02/09 06:02:33;;;;;;;14.32;4.97;;;;;;;6.75;nan;93828.47;2064860;28;20406;-62
2024/02/09 06:03:34;;;;;;;8.50;4.63;;;;;;;6.78;nan;93833.41;2065430;28;20458;-62
2024/02/09 06:04:39;;;;;;;10.57;4.50;;;;;;;6.79;nan;93836.81;2065471;28;20049;-62
2024/02/09 06:05:41;;;;;;;13.02;4.55;;;;;;;6.78;nan;93827.44;2065327;28;20045;-62
2024/02/09 06:06:45;;;;;;;10.38;4.60;;;;;;;6.79;nan;93829.06;2064107;28;20398;-62
2024/02/09 06:07:48;;;;;;;11.25;4.82;;;;;;;6.80;nan;93828.16;2065414;28;20482;-62
2024/02/09 06:08:49;;;;;;;9.02;4.53;;;;;;;6.78;nan;93824.84;2065443;28;20038;-62
2024/02/09 06:09:51;;;;;;;11.95;4.68;;;;;;;6.78;nan;93830.81;2064988;28;20042;-63
2024/02/09 06:10:52;;;;;;;11.27;4.53;;;;;;;6.78;nan;93828.25;2065101;28;20047;-62
2024/02/09 06:11:56;;;;;;;8.10;3.88;;;;;;;6.78;nan;93833.41;2064846;28;20050;-62
2024/02/09 06:12:57;;;;;;;13.15;4.05;;;;;;;6.71;nan;93833.91;2065385;28;20042;-62
2024/02/09 06:14:00;;;;;;;10.35;4.45;;;;;;;6.72;nan;93836.41;2065485;28;20053;-62
2024/02/09 06:15:01;;;;;;;11.15;4.22;;;;;;;6.73;nan;93839.81;2065250;28;20043;-62
2024/02/09 06:16:02;;;;;;;12.15;4.90;;;;;;;6.76;nan;93848.19;2064755;28;20050;-62
2024/02/09 06:17:04;;;;;;;10.07;3.90;;;;;;;6.73;nan;93843.19;2056793;28;20061;-62
2024/02/09 06:18:05;;;;;;;8.95;4.43;;;;;;;6.72;nan;93841.56;2055947;28;20553;-62
2024/02/09 06:19:07;;;;;;;9.25;4.22;;;;;;;6.71;nan;93845.09;2065051;28;20050;-63
2024/02/09 06:20:09;;;;;;;10.60;3.72;;;;;;;6.70;nan;93840.84;2066774;28;20045;-62
2024/02/09 06:21:10;;;;;;;16.88;4.57;;;;;;;6.68;nan;93841.84;2066970;28;20490;-62
2024/02/09 06:22:12;;;;;;;8.00;4.30;;;;;;;6.71;nan;93844.22;2066475;28;20065;-62
2024/02/09 06:23:13;;;;;;;12.40;4.05;;;;;;;6.72;nan;93843.31;2067070;28;20038;-62
2024/02/09 06:24:14;;;;;;;11.27;3.83;;;;;;;6.72;nan;93843.31;2067121;28;20053;-62
2024/02/09 06:25:15;;;;;;;8.88;3.38;;;;;;;6.75;nan;93846.50;2067142;28;20042;-62
2024/02/09 06:26:16;;;;;;;10.85;3.97;;;;;;;6.77;nan;93844.66;2067213;28;20506;-62
2024/02/09 06:27:19;;;;;;;8.68;3.35;;;;;;;6.78;nan;93846.31;2058410;28;20046;-62
2024/02/09 06:28:21;;;;;;;7.75;3.47;;;;;;;6.80;nan;93841.88;2050697;28;20480;-62
2024/02/09 06:29:22;;;;;;;8.93;4.03;;;;;;;6.82;nan;93847.78;2058354;28;20122;-62
2024/02/09 06:30:23;;;;;;;10.38;3.70;;;;;;;6.83;nan;93840.84;2066529;28;20050;-62
2024/02/09 06:31:25;;;;;;;8.73;3.78;;;;;;;6.83;nan;93848.59;2066930;28;20073;-62
2024/02/09 06:32:26;;;;;;;12.07;4.25;;;;;;;6.83;nan;93849.41;2066891;28;20402;-62
2024/02/09 06:33:27;;;;;;;7.05;3.70;;;;;;;6.81;nan;93846.09;2066862;28;20049;-62
2024/02/09 06:34:29;;;;;;;8.30;3.42;;;;;;;6.82;nan;93844.38;2066684;28;20058;-62
2024/02/09 06:35:31;;;;;;;11.35;4.20;;;;;;;6.86;nan;93840.63;2066673;28;20045;-62
2024/02/09 06:36:32;;;;;;;10.15;3.90;;;;;;;6.88;nan;93851.69;2066285;28;20059;-63
2024/02/09 06:37:34;;;;;;;11.30;3.80;;;;;;;6.89;nan;93849.94;2066942;28;20038;-62
2024/02/09 06:38:36;;;;;;;7.28;3.67;;;;;;;6.95;nan;93846.94;2065853;28;20057;-62
2024/02/09 06:39:37;;;;;;;12.52;4.15;;;;;;;6.95;nan;93841.78;2066262;28;20058;-62
2024/02/09 06:40:38;;;;;;;9.95;3.63;;;;;;;6.91;nan;93842.91;2066843;28;20042;-62
2024/02/09 06:41:39;;;;;;;8.63;3.90;;;;;;;6.95;nan;93850.34;2066811;28;20073;-62
2024/02/09 06:42:43;;;;;;;7.68;3.97;;;;;;;6.97;nan;93845.06;2066302;28;20047;-62
2024/02/09 06:43:44;;;;;;;6.05;3.50;;;;;;;7.00;nan;93852.59;2066300;28;20407;-63
2024/02/09 06:44:45;;;;;;;8.88;3.28;;;;;;;6.95;nan;93845.19;2066752;28;20037;-62
2024/02/09 06:45:46;;;;;;;6.78;3.50;;;;;;;6.93;nan;93841.06;2066301;28;20058;-61
2024/02/09 06:46:47;;;;;;;7.88;2.95;;;;;;;7.01;nan;93846.53;2058203;28;20051;-62
2024/02/09 06:47:48;;;;;;;8.13;3.55;;;;;;;7.03;nan;93844.66;2058279;28;20047;-63